sensor_id;sensor_type;location;lat;lon;timestamp;pressure;altitude;pressure_sealevel;temperature;humidity
11212;BME280;5663;50.864;12.096;2023-12-04T00:02:03;99872.38;;;-2.78;69.94
11212;BME280;5663;50.864;12.096;2023-12-04T00:04:31;99865.56;;;-2.79;69.87
11212;BME280;5663;50.864;12.096;2023-12-04T00:07:00;99871.50;;;-2.79;69.97
11212;BME280;5663;50.864;12.096;2023-12-04T00:09:29;99863.84;;;-2.80;70.03
11212;BME280;5663;50.864;12.096;2023-12-04T00:11:58;99857.06;;;-2.81;70.16
11212;BME280;5663;50.864;12.096;2023-12-04T00:14:26;99858.75;;;-2.80;70.17
11212;BME280;5663;50.864;12.096;2023-12-04T00:16:56;99831.47;;;-2.92;70.21
11212;BME280;5663;50.864;12.096;2023-12-04T00:19:25;99857.09;;;-2.78;69.97
11212;BME280;5663;50.864;12.096;2023-12-04T00:21:53;99850.31;;;-2.76;70.20
11212;BME280;5663;50.864;12.096;2023-12-04T00:24:22;99856.28;;;-2.73;70.16
11212;BME280;5663;50.864;12.096;2023-12-04T00:26:50;99849.59;;;-2.66;70.26
11212;BME280;5663;50.864;12.096;2023-12-04T00:29:19;99843.66;;;-2.65;70.06
11212;BME280;5663;50.864;12.096;2023-12-04T00:31:47;99836.91;;;-2.63;69.74
11212;BME280;5663;50.864;12.096;2023-12-04T00:34:16;99839.44;;;-2.63;70.10
11212;BME280;5663;50.864;12.096;2023-12-04T00:36:46;99836.94;;;-2.58;69.92
11212;BME280;5663;50.864;12.096;2023-12-04T00:39:15;99833.53;;;-2.59;69.77
11212;BME280;5663;50.864;12.096;2023-12-04T00:41:44;99831.03;;;-2.54;69.74
11212;BME280;5663;50.864;12.096;2023-12-04T00:44:13;99831.00;;;-2.57;69.79
11212;BME280;5663;50.864;12.096;2023-12-04T00:46:43;99830.16;;;-2.58;69.82
11212;BME280;5663;50.864;12.096;2023-12-04T00:49:11;99823.31;;;-2.62;69.69
11212;BME280;5663;50.864;12.096;2023-12-04T00:51:43;99825.81;;;-2.65;69.75
11212;BME280;5663;50.864;12.096;2023-12-04T00:54:13;99821.59;;;-2.66;70.04
11212;BME280;5663;50.864;12.096;2023-12-04T00:56:43;99821.59;;;-2.66;70.14
11212;BME280;5663;50.864;12.096;2023-12-04T00:59:11;99815.59;;;-2.68;69.97
11212;BME280;5663;50.864;12.096;2023-12-04T01:01:39;99813.03;;;-2.74;70.09
11212;BME280;5663;50.864;12.096;2023-12-04T01:04:07;99811.31;;;-2.75;70.13
11212;BME280;5663;50.864;12.096;2023-12-04T01:06:36;99818.97;;;-2.75;70.18
11212;BME280;5663;50.864;12.096;2023-12-04T01:09:06;99790.81;;;-2.87;70.06
11212;BME280;5663;50.864;12.096;2023-12-04T01:11:33;99809.63;;;-2.72;70.05
11212;BME280;5663;50.864;12.096;2023-12-04T01:14:03;99814.78;;;-2.67;69.88
11212;BME280;5663;50.864;12.096;2023-12-04T01:16:32;99806.31;;;-2.66;69.64
11212;BME280;5663;50.864;12.096;2023-12-04T01:19:00;99813.09;;;-2.65;69.76
11212;BME280;5663;50.864;12.096;2023-12-04T01:21:30;99804.63;;;-2.64;69.75
11212;BME280;5663;50.864;12.096;2023-12-04T01:23:58;99784.25;;;-2.65;69.75
11212;BME280;5663;50.864;12.096;2023-12-04T01:26:28;99780.00;;;-2.66;69.45
11212;BME280;5663;50.864;12.096;2023-12-04T01:28:57;99797.91;;;-2.59;69.59
11212;BME280;5663;50.864;12.096;2023-12-04T01:31:26;99789.34;;;-2.64;69.55
11212;BME280;5663;50.864;12.096;2023-12-04T01:33:55;99791.06;;;-2.63;69.43
11212;BME280;5663;50.864;12.096;2023-12-04T01:36:24;99782.59;;;-2.62;69.46
11212;BME280;5663;50.864;12.096;2023-12-04T01:38:52;99777.47;;;-2.65;69.33
11212;BME280;5663;50.864;12.096;2023-12-04T01:41:21;99780.03;;;-2.62;69.24
11212;BME280;5663;50.864;12.096;2023-12-04T01:43:52;99777.50;;;-2.62;69.24
11212;BME280;5663;50.864;12.096;2023-12-04T01:46:21;99770.72;;;-2.63;69.41
11212;BME280;5663;50.864;12.096;2023-12-04T01:48:52;99765.63;;;-2.63;69.36
11212;BME280;5663;50.864;12.096;2023-12-04T01:51:20;99762.22;;;-2.62;69.33
11212;BME280;5663;50.864;12.096;2023-12-04T01:53:50;99751.19;;;-2.61;69.39
11212;BME280;5663;50.864;12.096;2023-12-04T01:56:53;99755.47;;;-2.57;69.21
11212;BME280;5663;50.864;12.096;2023-12-04T01:59:25;99713.72;;;-2.76;69.02
11212;BME280;5663;50.864;12.096;2023-12-04T02:01:54;99752.13;;;-2.51;69.14
11212;BME280;5663;50.864;12.096;2023-12-04T02:04:24;99748.75;;;-2.49;69.47
11212;BME280;5663;50.864;12.096;2023-12-04T02:06:54;99755.56;;;-2.44;69.37
11212;BME280;5663;50.864;12.096;2023-12-04T02:09:23;99753.91;;;-2.42;69.44
11212;BME280;5663;50.864;12.096;2023-12-04T02:11:52;99743.69;;;-2.45;69.30
11212;BME280;5663;50.864;12.096;2023-12-04T02:14:21;99743.75;;;-2.39;69.31
11212;BME280;5663;50.864;12.096;2023-12-04T02:16:52;99740.34;;;-2.38;69.05
11212;BME280;5663;50.864;12.096;2023-12-04T02:19:22;99738.66;;;-2.36;69.14
11212;BME280;5663;50.864;12.096;2023-12-04T02:21:51;99737.81;;;-2.37;69.20
11212;BME280;5663;50.864;12.096;2023-12-04T02:24:20;99736.94;;;-2.37;69.24
11212;BME280;5663;50.864;12.096;2023-12-04T02:26:52;99726.75;;;-2.37;69.34
11212;BME280;5663;50.864;12.096;2023-12-04T02:29:25;99736.94;;;-2.37;69.20
11212;BME280;5663;50.864;12.096;2023-12-04T02:31:56;99684.97;;;-2.65;68.97
11212;BME280;5663;50.864;12.096;2023-12-04T02:34:28;99723.38;;;-2.39;69.00
11212;BME280;5663;50.864;12.096;2023-12-04T02:36:59;99708.06;;;-2.42;68.95
11212;BME280;5663;50.864;12.096;2023-12-04T02:39:30;99704.63;;;-2.51;68.98
11212;BME280;5663;50.864;12.096;2023-12-04T02:42:00;99710.50;;;-2.56;69.12
11212;BME280;5663;50.864;12.096;2023-12-04T02:44:29;99682.34;;;-2.76;69.17
11212;BME280;5663;50.864;12.096;2023-12-04T02:46:58;99672.16;;;-2.79;69.12
11212;BME280;5663;50.864;12.096;2023-12-04T02:49:26;99675.50;;;-2.86;68.87
11212;BME280;5663;50.864;12.096;2023-12-04T02:51:53;99698.53;;;-2.69;68.87
11212;BME280;5663;50.864;12.096;2023-12-04T02:54:22;99707.84;;;-2.70;69.10
11212;BME280;5663;50.864;12.096;2023-12-04T02:56:52;99703.59;;;-2.74;68.92
11212;BME280;5663;50.864;12.096;2023-12-04T02:59:20;99706.94;;;-2.77;68.92
11212;BME280;5663;50.864;12.096;2023-12-04T03:01:50;99704.34;;;-2.84;68.91
11212;BME280;5663;50.864;12.096;2023-12-04T03:04:19;99696.66;;;-2.90;68.99
11212;BME280;5663;50.864;12.096;2023-12-04T03:06:48;99656.56;;;-3.16;69.12
11212;BME280;5663;50.864;12.096;2023-12-04T03:09:16;99689.81;;;-2.98;69.37
11212;BME280;5663;50.864;12.096;2023-12-04T03:11:45;99687.31;;;-2.94;69.44
11212;BME280;5663;50.864;12.096;2023-12-04T03:14:15;99688.19;;;-2.91;69.34
11212;BME280;5663;50.864;12.096;2023-12-04T03:16:42;99680.56;;;-2.89;69.63
11212;BME280;5663;50.864;12.096;2023-12-04T03:19:12;99672.06;;;-2.88;69.59
11212;BME280;5663;50.864;12.096;2023-12-04T03:21:40;99667.91;;;-2.82;69.62
11212;BME280;5663;50.864;12.096;2023-12-04T03:24:09;99637.25;;;-2.95;69.88
11212;BME280;5663;50.864;12.096;2023-12-04T03:26:36;99675.63;;;-2.71;69.89
11212;BME280;5663;50.864;12.096;2023-12-04T03:29:07;99676.53;;;-2.63;69.69
11212;BME280;5663;50.864;12.096;2023-12-04T03:31:38;99679.94;;;-2.56;69.52
11212;BME280;5663;50.864;12.096;2023-12-04T03:34:07;99680.84;;;-2.50;69.40
11212;BME280;5663;50.864;12.096;2023-12-04T03:36:35;99680.88;;;-2.46;69.37
11212;BME280;5663;50.864;12.096;2023-12-04T03:39:04;99656.22;;;-2.55;69.58
11212;BME280;5663;50.864;12.096;2023-12-04T03:41:33;99660.50;;;-2.45;69.52
11212;BME280;5663;50.864;12.096;2023-12-04T03:44:01;99676.78;;;-2.23;69.13
11212;BME280;5663;50.864;12.096;2023-12-04T03:46:30;99646.16;;;-2.28;69.01
11212;BME280;5663;50.864;12.096;2023-12-04T03:49:00;99664.09;;;-2.08;69.19
11212;BME280;5663;50.864;12.096;2023-12-04T03:51:30;99668.38;;;-2.01;68.89
11212;BME280;5663;50.864;12.096;2023-12-04T03:53:58;99641.16;;;-2.15;68.83
11212;BME280;5663;50.864;12.096;2023-12-04T03:56:26;99660.78;;;-1.94;68.94
11212;BME280;5663;50.864;12.096;2023-12-04T03:58:54;99651.44;;;-1.92;68.75
11212;BME280;5663;50.864;12.096;2023-12-04T04:01:23;99644.66;;;-1.90;68.84
11212;BME280;5663;50.864;12.096;2023-12-04T04:03:52;99637.88;;;-1.85;69.06
11212;BME280;5663;50.864;12.096;2023-12-04T04:06:27;99626.81;;;-1.84;68.73
11212;BME280;5663;50.864;12.096;2023-12-04T04:08:56;99633.63;;;-1.80;68.86
11212;BME280;5663;50.864;12.096;2023-12-04T04:11:24;99626.84;;;-1.78;68.85
11212;BME280;5663;50.864;12.096;2023-12-04T04:13:54;99608.13;;;-1.86;68.74
11212;BME280;5663;50.864;12.096;2023-12-04T04:16:22;99627.72;;;-1.75;68.77
11212;BME280;5663;50.864;12.096;2023-12-04T04:18:53;99610.69;;;-1.76;68.86
11212;BME280;5663;50.864;12.096;2023-12-04T04:21:22;99612.41;;;-1.73;68.36
11212;BME280;5663;50.864;12.096;2023-12-04T04:23:51;99608.19;;;-1.71;68.85
11212;BME280;5663;50.864;12.096;2023-12-04T04:26:20;99599.69;;;-1.71;68.66
11212;BME280;5663;50.864;12.096;2023-12-04T04:28:49;99598.81;;;-1.74;68.62
11212;BME280;5663;50.864;12.096;2023-12-04T04:31:17;99595.41;;;-1.73;68.46
11212;BME280;5663;50.864;12.096;2023-12-04T04:33:47;99597.13;;;-1.70;68.41
11212;BME280;5663;50.864;12.096;2023-12-04T04:36:15;99598.00;;;-1.71;68.48
11212;BME280;5663;50.864;12.096;2023-12-04T04:38:45;99571.59;;;-1.93;68.57
11212;BME280;5663;50.864;12.096;2023-12-04T04:41:15;99589.44;;;-1.91;68.34
11212;BME280;5663;50.864;12.096;2023-12-04T04:43:44;99603.06;;;-1.74;68.30
11212;BME280;5663;50.864;12.096;2023-12-04T04:46:14;99596.28;;;-1.75;68.25
11212;BME280;5663;50.864;12.096;2023-12-04T04:48:43;99590.31;;;-1.77;68.28
11212;BME280;5663;50.864;12.096;2023-12-04T04:51:11;99591.16;;;-1.81;68.70
11212;BME280;5663;50.864;12.096;2023-12-04T04:53:39;99589.47;;;-1.79;68.60
11212;BME280;5663;50.864;12.096;2023-12-04T04:56:09;99579.25;;;-1.82;68.20
11212;BME280;5663;50.864;12.096;2023-12-04T04:58:40;99580.97;;;-1.83;68.52
11212;BME280;5663;50.864;12.096;2023-12-04T05:01:08;99582.66;;;-1.83;68.65
11212;BME280;5663;50.864;12.096;2023-12-04T05:03:37;99575.00;;;-1.85;68.46
11212;BME280;5663;50.864;12.096;2023-12-04T05:06:05;99569.91;;;-1.91;68.45
11212;BME280;5663;50.864;12.096;2023-12-04T05:08:36;99569.03;;;-1.88;68.32
11212;BME280;5663;50.864;12.096;2023-12-04T05:11:04;99570.78;;;-1.87;68.58
11212;BME280;5663;50.864;12.096;2023-12-04T05:13:33;99566.50;;;-1.90;68.45
11212;BME280;5663;50.864;12.096;2023-12-04T05:16:04;99566.50;;;-1.90;68.88
11212;BME280;5663;50.864;12.096;2023-12-04T05:18:32;99550.38;;;-1.90;68.65
11212;BME280;5663;50.864;12.096;2023-12-04T05:20:59;99545.25;;;-1.93;68.79
11212;BME280;5663;50.864;12.096;2023-12-04T05:23:27;99514.63;;;-2.18;68.79
11212;BME280;5663;50.864;12.096;2023-12-04T05:25:56;99549.50;;;-1.94;68.76
11212;BME280;5663;50.864;12.096;2023-12-04T05:28:24;99543.53;;;-1.98;68.64
11212;BME280;5663;50.864;12.096;2023-12-04T05:30:52;99546.09;;;-1.96;68.53
11212;BME280;5663;50.864;12.096;2023-12-04T05:33:22;99545.25;;;-1.96;68.55
11212;BME280;5663;50.864;12.096;2023-12-04T05:35:51;99540.13;;;-2.00;68.71
11212;BME280;5663;50.864;12.096;2023-12-04T05:38:19;99530.78;;;-2.04;68.67
11212;BME280;5663;50.864;12.096;2023-12-04T05:40:48;99529.94;;;-2.09;68.79
11212;BME280;5663;50.864;12.096;2023-12-04T05:43:17;99534.19;;;-2.06;68.58
11212;BME280;5663;50.864;12.096;2023-12-04T05:45:46;99532.50;;;-2.06;68.90
11212;BME280;5663;50.864;12.096;2023-12-04T05:48:15;99533.34;;;-2.02;68.67
11212;BME280;5663;50.864;12.096;2023-12-04T05:50:45;99530.78;;;-2.01;68.57
11212;BME280;5663;50.864;12.096;2023-12-04T05:53:13;99529.09;;;-2.02;68.56
11212;BME280;5663;50.864;12.096;2023-12-04T05:55:41;99527.38;;;-2.04;68.35
11212;BME280;5663;50.864;12.096;2023-12-04T05:58:09;99506.97;;;-2.19;68.21
11212;BME280;5663;50.864;12.096;2023-12-04T06:00:38;99520.59;;;-2.10;68.20
11212;BME280;5663;50.864;12.096;2023-12-04T06:03:07;99474.66;;;-2.40;68.42
11212;BME280;5663;50.864;12.096;2023-12-04T06:05:36;99505.25;;;-2.24;68.55
11212;BME280;5663;50.864;12.096;2023-12-04T06:08:07;99512.91;;;-2.25;68.54
11212;BME280;5663;50.864;12.096;2023-12-04T06:10:35;99499.31;;;-2.30;68.48
11212;BME280;5663;50.864;12.096;2023-12-04T06:13:04;99495.06;;;-2.34;68.35
11212;BME280;5663;50.864;12.096;2023-12-04T06:15:32;99502.66;;;-2.40;68.54
11212;BME280;5663;50.864;12.096;2023-12-04T06:17:59;99503.50;;;-2.44;68.51
11212;BME280;5663;50.864;12.096;2023-12-04T06:20:27;99490.75;;;-2.54;68.73
11212;BME280;5663;50.864;12.096;2023-12-04T06:22:57;99489.00;;;-2.64;68.83
11212;BME280;5663;50.864;12.096;2023-12-04T06:25:27;99489.81;;;-2.69;68.99
11212;BME280;5663;50.864;12.096;2023-12-04T06:27:56;99488.97;;;-2.70;68.99
11212;BME280;5663;50.864;12.096;2023-12-04T06:30:26;99483.88;;;-2.73;68.86
11212;BME280;5663;50.864;12.096;2023-12-04T06:32:54;99484.72;;;-2.79;68.85
11212;BME280;5663;50.864;12.096;2023-12-04T06:35:23;99481.28;;;-2.85;68.87
11212;BME280;5663;50.864;12.096;2023-12-04T06:37:53;99482.13;;;-2.86;68.97
11212;BME280;5663;50.864;12.096;2023-12-04T06:40:24;99487.19;;;-2.89;68.87
11212;BME280;5663;50.864;12.096;2023-12-04T06:42:56;99489.66;;;-3.02;69.13
11212;BME280;5663;50.864;12.096;2023-12-04T06:45:26;99481.19;;;-3.02;69.24
11212;BME280;5663;50.864;12.096;2023-12-04T06:47:55;99482.88;;;-3.03;69.17
11212;BME280;5663;50.864;12.096;2023-12-04T06:50:24;99482.06;;;-2.99;69.18
11212;BME280;5663;50.864;12.096;2023-12-04T06:52:53;99486.31;;;-2.99;69.02
11212;BME280;5663;50.864;12.096;2023-12-04T06:55:23;99472.72;;;-3.03;68.86
11212;BME280;5663;50.864;12.096;2023-12-04T06:57:57;99472.69;;;-3.04;68.91
11212;BME280;5663;50.864;12.096;2023-12-04T07:00:25;99476.94;;;-3.05;68.95
11212;BME280;5663;50.864;12.096;2023-12-04T07:02:53;99466.75;;;-3.05;68.80
11212;BME280;5663;50.864;12.096;2023-12-04T07:05:22;99455.72;;;-3.08;68.49
11212;BME280;5663;50.864;12.096;2023-12-04T07:07:50;99462.53;;;-3.06;68.84
11212;BME280;5663;50.864;12.096;2023-12-04T07:10:17;99464.19;;;-3.08;68.74
11212;BME280;5663;50.864;12.096;2023-12-04T07:12:45;99439.53;;;-3.21;68.63
11212;BME280;5663;50.864;12.096;2023-12-04T07:15:15;99465.91;;;-3.07;68.77
11212;BME280;5663;50.864;12.096;2023-12-04T07:17:45;99469.31;;;-3.05;68.96
11212;BME280;5663;50.864;12.096;2023-12-04T07:20:13;99466.75;;;-3.05;68.85
11212;BME280;5663;50.864;12.096;2023-12-04T07:22:42;99466.81;;;-2.99;68.71
11212;BME280;5663;50.864;12.096;2023-12-04T07:25:12;99475.31;;;-2.93;68.64
11212;BME280;5663;50.864;12.096;2023-12-04T07:27:40;99462.56;;;-2.92;68.59
11212;BME280;5663;50.864;12.096;2023-12-04T07:30:09;99461.75;;;-2.83;68.58
11212;BME280;5663;50.864;12.096;2023-12-04T07:32:40;99468.56;;;-2.82;68.57
11212;BME280;5663;50.864;12.096;2023-12-04T07:35:09;99473.69;;;-2.79;68.36
11212;BME280;5663;50.864;12.096;2023-12-04T07:37:38;99475.38;;;-2.78;68.58
11212;BME280;5663;50.864;12.096;2023-12-04T07:40:07;99462.63;;;-2.80;68.56
11212;BME280;5663;50.864;12.096;2023-12-04T07:42:37;99467.75;;;-2.74;68.83
11212;BME280;5663;50.864;12.096;2023-12-04T07:45:07;99460.13;;;-2.69;68.61
11212;BME280;5663;50.864;12.096;2023-12-04T07:47:37;99456.75;;;-2.69;68.77
11212;BME280;5663;50.864;12.096;2023-12-04T07:50:08;99458.47;;;-2.61;68.68
11212;BME280;5663;50.864;12.096;2023-12-04T07:52:36;99451.69;;;-2.53;68.71
11212;BME280;5663;50.864;12.096;2023-12-04T07:55:06;99451.72;;;-2.43;68.54
11212;BME280;5663;50.864;12.096;2023-12-04T07:57:35;99463.63;;;-2.36;68.62
11212;BME280;5663;50.864;12.096;2023-12-04T08:00:04;99459.41;;;-2.31;68.53
11212;BME280;5663;50.864;12.096;2023-12-04T08:02:32;99458.59;;;-2.18;68.54
11212;BME280;5663;50.864;12.096;2023-12-04T08:05:01;99466.25;;;-2.10;68.47
11212;BME280;5663;50.864;12.096;2023-12-04T08:07:31;99445.00;;;-2.14;68.56
11212;BME280;5663;50.864;12.096;2023-12-04T08:09:59;99449.25;;;-2.01;68.49
11212;BME280;5663;50.864;12.096;2023-12-04T08:12:28;99445.88;;;-1.89;68.35
11212;BME280;5663;50.864;12.096;2023-12-04T08:14:56;99439.94;;;-1.77;68.18
11212;BME280;5663;50.864;12.096;2023-12-04T08:17:24;99439.91;;;-1.65;68.03
11212;BME280;5663;50.864;12.096;2023-12-04T08:19:52;99433.13;;;-1.60;68.10
11212;BME280;5663;50.864;12.096;2023-12-04T08:22:22;99429.72;;;-1.53;68.00
11212;BME280;5663;50.864;12.096;2023-12-04T08:24:51;99421.22;;;-1.42;67.92
11212;BME280;5663;50.864;12.096;2023-12-04T08:27:19;99412.69;;;-1.38;67.78
11212;BME280;5663;50.864;12.096;2023-12-04T08:29:47;99407.59;;;-1.35;67.76
11212;BME280;5663;50.864;12.096;2023-12-04T08:32:15;99419.47;;;-1.28;68.02
11212;BME280;5663;50.864;12.096;2023-12-04T08:34:43;99413.50;;;-1.18;67.86
11212;BME280;5663;50.864;12.096;2023-12-04T08:37:12;99411.75;;;-1.07;67.87
11212;BME280;5663;50.864;12.096;2023-12-04T08:39:41;99404.88;;;-0.92;67.38
11212;BME280;5663;50.864;12.096;2023-12-04T08:42:11;99409.09;;;-0.79;67.36
11212;BME280;5663;50.864;12.096;2023-12-04T08:44:40;99411.63;;;-0.71;66.89
11212;BME280;5663;50.864;12.096;2023-12-04T08:47:08;99414.16;;;-0.64;66.85
11212;BME280;5663;50.864;12.096;2023-12-04T08:49:36;99403.91;;;-0.61;67.31
11212;BME280;5663;50.864;12.096;2023-12-04T08:52:06;99407.22;;;-0.46;67.14
11212;BME280;5663;50.864;12.096;2023-12-04T08:54:39;99403.81;;;-0.42;67.11
11212;BME280;5663;50.864;12.096;2023-12-04T08:57:07;99401.19;;;-0.33;67.24
11212;BME280;5663;50.864;12.096;2023-12-04T08:59:37;99409.59;;;-0.17;67.31
11212;BME280;5663;50.864;12.096;2023-12-04T09:02:06;99411.16;;;0.02;67.17
11212;BME280;5663;50.864;12.096;2023-12-04T09:04:34;99413.56;;;0.19;67.20
11212;BME280;5663;50.864;12.096;2023-12-04T09:07:05;99411.75;;;0.36;66.79
11212;BME280;5663;50.864;12.096;2023-12-04T09:09:32;99414.97;;;0.54;66.58
11212;BME280;5663;50.864;12.096;2023-12-04T09:12:04;99416.56;;;0.64;66.44
11212;BME280;5663;50.864;12.096;2023-12-04T09:14:34;99420.75;;;0.74;66.52
11212;BME280;5663;50.864;12.096;2023-12-04T09:17:05;99424.88;;;0.86;66.68
11212;BME280;5663;50.864;12.096;2023-12-04T09:19:33;99423.03;;;0.98;66.20
11212;BME280;5663;50.864;12.096;2023-12-04T09:22:03;99410.09;;;1.08;66.22
11212;BME280;5663;50.864;12.096;2023-12-04T09:24:30;99414.28;;;1.18;65.80
11212;BME280;5663;50.864;12.096;2023-12-04T09:26:58;99410.78;;;1.25;65.76
11212;BME280;5663;50.864;12.096;2023-12-04T09:29:27;99368.25;;;1.12;65.62
11212;BME280;5663;50.864;12.096;2023-12-04T09:31:56;99402.06;;;1.38;65.37
11212;BME280;5663;50.864;12.096;2023-12-04T09:34:26;99398.63;;;1.39;65.00
11212;BME280;5663;50.864;12.096;2023-12-04T09:36:54;99387.56;;;1.37;65.09
11212;BME280;5663;50.864;12.096;2023-12-04T09:39:22;99393.41;;;1.45;65.13
11212;BME280;5663;50.864;12.096;2023-12-04T09:41:51;99386.53;;;1.47;65.12
11212;BME280;5663;50.864;12.096;2023-12-04T09:44:21;99380.53;;;1.50;65.27
11212;BME280;5663;50.864;12.096;2023-12-04T09:46:51;99386.41;;;1.60;65.17
11212;BME280;5663;50.864;12.096;2023-12-04T09:49:19;99352.25;;;1.58;64.96
11212;BME280;5663;50.864;12.096;2023-12-04T09:51:49;99382.66;;;1.79;64.87
11212;BME280;5663;50.864;12.096;2023-12-04T09:54:17;99378.41;;;1.80;64.59
11212;BME280;5663;50.864;12.096;2023-12-04T09:56:46;99381.63;;;1.91;64.89
11212;BME280;5663;50.864;12.096;2023-12-04T09:59:15;99375.47;;;2.03;64.86
11212;BME280;5663;50.864;12.096;2023-12-04T10:01:46;99376.97;;;2.16;64.72
11212;BME280;5663;50.864;12.096;2023-12-04T10:04:16;99361.38;;;2.28;64.70
11212;BME280;5663;50.864;12.096;2023-12-04T10:06:45;99361.19;;;2.37;64.34
11212;BME280;5663;50.864;12.096;2023-12-04T10:09:16;99354.16;;;2.49;64.37
11212;BME280;5663;50.864;12.096;2023-12-04T10:11:45;99341.09;;;2.59;63.47
11212;BME280;5663;50.864;12.096;2023-12-04T10:14:17;99341.00;;;2.65;63.21
11212;BME280;5663;50.864;12.096;2023-12-04T10:16:47;99340.59;;;2.85;62.87
11212;BME280;5663;50.864;12.096;2023-12-04T10:19:19;99337.84;;;2.94;62.67
11212;BME280;5663;50.864;12.096;2023-12-04T10:21:49;99335.09;;;3.04;62.59
11212;BME280;5663;50.864;12.096;2023-12-04T10:24:31;99317.09;;;3.05;62.29
11212;BME280;5663;50.864;12.096;2023-12-04T10:27:02;99317.13;;;3.04;62.38
11212;BME280;5663;50.864;12.096;2023-12-04T10:29:41;99315.47;;;3.01;62.26
11212;BME280;5663;50.864;12.096;2023-12-04T10:32:18;99291.63;;;2.94;62.16
11212;BME280;5663;50.864;12.096;2023-12-04T10:34:51;99291.50;;;3.01;62.54
11212;BME280;5663;50.864;12.096;2023-12-04T10:37:19;99288.03;;;3.02;62.16
11212;BME280;5663;50.864;12.096;2023-12-04T10:39:52;99279.53;;;3.00;62.61
11212;BME280;5663;50.864;12.096;2023-12-04T10:42:28;99274.41;;;3.00;62.79
11212;BME280;5663;50.864;12.096;2023-12-04T10:44:58;99270.88;;;3.04;62.08
11212;BME280;5663;50.864;12.096;2023-12-04T10:47:28;99278.44;;;3.10;62.41
11212;BME280;5663;50.864;12.096;2023-12-04T10:49:57;99275.81;;;3.13;62.48
11212;BME280;5663;50.864;12.096;2023-12-04T10:52:26;99268.22;;;3.08;62.09
11212;BME280;5663;50.864;12.096;2023-12-04T10:54:56;99221.53;;;2.89;62.32
11212;BME280;5663;50.864;12.096;2023-12-04T10:57:27;99262.03;;;3.17;62.30
11212;BME280;5663;50.864;12.096;2023-12-04T11:00:04;99255.19;;;3.16;62.30
11212;BME280;5663;50.864;12.096;2023-12-04T11:02:34;99259.34;;;3.21;62.26
11212;BME280;5663;50.864;12.096;2023-12-04T11:05:07;99262.63;;;3.27;61.93
11212;BME280;5663;50.864;12.096;2023-12-04T11:07:48;99245.59;;;3.22;62.26
11212;BME280;5663;50.864;12.096;2023-12-04T11:10:22;99199.91;;;3.00;61.90
11212;BME280;5663;50.864;12.096;2023-12-04T11:13:07;99258.09;;;3.39;61.76
11212;BME280;5663;50.864;12.096;2023-12-04T11:15:39;99240.00;;;3.42;61.68
11212;BME280;5663;50.864;12.096;2023-12-04T11:18:12;99242.25;;;3.55;61.63
11212;BME280;5663;50.864;12.096;2023-12-04T11:20:51;99250.72;;;3.60;61.20
11212;BME280;5663;50.864;12.096;2023-12-04T11:23:22;99243.69;;;3.68;61.51
11212;BME280;5663;50.864;12.096;2023-12-04T11:25:53;99239.97;;;3.78;61.14
11212;BME280;5663;50.864;12.096;2023-12-04T11:28:23;99238.16;;;3.83;61.52
11212;BME280;5663;50.864;12.096;2023-12-04T11:31:01;99240.63;;;3.86;61.04
11212;BME280;5663;50.864;12.096;2023-12-04T11:33:38;99239.66;;;3.90;61.39
11212;BME280;5663;50.864;12.096;2023-12-04T11:36:08;99246.59;;;3.88;61.52
11212;BME280;5663;50.864;12.096;2023-12-04T11:38:37;99240.72;;;3.83;60.99
11212;BME280;5663;50.864;12.096;2023-12-04T11:41:16;99238.22;;;3.80;61.11
11212;BME280;5663;50.864;12.096;2023-12-04T11:43:46;99238.28;;;3.77;60.99
11212;BME280;5663;50.864;12.096;2023-12-04T11:47:04;99225.63;;;3.69;60.37
11212;BME280;5663;50.864;12.096;2023-12-04T11:49:33;99224.06;;;3.64;60.80
11212;BME280;5663;50.864;12.096;2023-12-04T11:52:04;99215.66;;;3.57;60.76
11212;BME280;5663;50.864;12.096;2023-12-04T11:54:57;99202.91;;;3.53;60.88
11212;BME280;5663;50.864;12.096;2023-12-04T11:57:32;99212.69;;;3.38;60.16
11212;BME280;5663;50.864;12.096;2023-12-04T12:00:12;99189.16;;;3.19;60.70
11212;BME280;5663;50.864;12.096;2023-12-04T12:02:48;99194.84;;;3.32;61.12
11212;BME280;5663;50.864;12.096;2023-12-04T12:05:21;99188.03;;;3.31;60.60
11212;BME280;5663;50.864;12.096;2023-12-04T12:07:50;99179.72;;;3.20;60.31
11212;BME280;5663;50.864;12.096;2023-12-04T12:10:18;99177.06;;;3.25;60.70
11212;BME280;5663;50.864;12.096;2023-12-04T12:12:50;99139.72;;;3.10;60.52
11212;BME280;5663;50.864;12.096;2023-12-04T12:15:18;99158.19;;;3.26;60.60
11212;BME280;5663;50.864;12.096;2023-12-04T12:17:47;99157.25;;;3.28;60.54
11212;BME280;5663;50.864;12.096;2023-12-04T12:20:21;99150.34;;;3.30;60.47
11212;BME280;5663;50.864;12.096;2023-12-04T12:22:52;99151.03;;;3.37;60.67
11212;BME280;5663;50.864;12.096;2023-12-04T12:25:21;99146.69;;;3.40;60.25
11212;BME280;5663;50.864;12.096;2023-12-04T12:27:52;99140.66;;;3.41;60.47
11212;BME280;5663;50.864;12.096;2023-12-04T12:30:20;99137.16;;;3.44;60.55
11212;BME280;5663;50.864;12.096;2023-12-04T12:32:50;99132.78;;;3.48;60.45
11212;BME280;5663;50.864;12.096;2023-12-04T12:35:19;99132.78;;;3.48;60.36
11212;BME280;5663;50.864;12.096;2023-12-04T12:37:50;99130.22;;;3.48;61.07
11212;BME280;5663;50.864;12.096;2023-12-04T12:40:21;99136.06;;;3.53;60.68
11212;BME280;5663;50.864;12.096;2023-12-04T12:43:03;99136.03;;;3.54;60.88
11212;BME280;5663;50.864;12.096;2023-12-04T12:45:39;99130.03;;;3.54;61.25
11212;BME280;5663;50.864;12.096;2023-12-04T12:48:10;99129.16;;;3.55;61.30
11212;BME280;5663;50.864;12.096;2023-12-04T12:50:39;99129.97;;;3.57;61.36
11212;BME280;5663;50.864;12.096;2023-12-04T12:53:07;99124.00;;;3.56;61.27
11212;BME280;5663;50.864;12.096;2023-12-04T12:55:38;99121.38;;;3.58;61.35
11212;BME280;5663;50.864;12.096;2023-12-04T12:58:09;99115.44;;;3.56;61.48
11212;BME280;5663;50.864;12.096;2023-12-04T13:00:47;99117.19;;;3.54;61.01
11212;BME280;5663;50.864;12.096;2023-12-04T13:03:25;99105.31;;;3.50;60.89
11212;BME280;5663;50.864;12.096;2023-12-04T13:05:53;99107.09;;;3.48;61.62
11212;BME280;5663;50.864;12.096;2023-12-04T13:08:25;99113.84;;;3.52;61.31
11212;BME280;5663;50.864;12.096;2023-12-04T13:10:56;99108.69;;;3.52;61.72
11212;BME280;5663;50.864;12.096;2023-12-04T13:13:27;99098.41;;;3.52;61.65
11212;BME280;5663;50.864;12.096;2023-12-04T13:15:56;99095.84;;;3.50;62.04
11212;BME280;5663;50.864;12.096;2023-12-04T13:18:25;99086.41;;;3.51;62.05